sensor_id;sensor_type;location;lat;lon;timestamp;pressure;altitude;pressure_sealevel;temperature
70969;BMP280;58630;43.022;25.100;2023-05-20T00:00:22;;;;20.50
70969;BMP280;58630;43.022;25.100;2023-05-20T00:02:47;;;;20.50
70969;BMP280;58630;43.022;25.100;2023-05-20T00:05:13;;;;20.40
70969;BMP280;58630;43.022;25.100;2023-05-20T00:07:38;;;;20.40
70969;BMP280;58630;43.022;25.100;2023-05-20T00:10:04;;;;20.40
70969;BMP280;58630;43.022;25.100;2023-05-20T00:12:30;;;;20.40
70969;BMP280;58630;43.022;25.100;2023-05-20T00:14:55;;;;20.40
70969;BMP280;58630;43.022;25.100;2023-05-20T00:17:21;;;;20.40
70969;BMP280;58630;43.022;25.100;2023-05-20T00:19:47;;;;20.40
70969;BMP280;58630;43.022;25.100;2023-05-20T00:22:12;;;;20.30
70969;BMP280;58630;43.022;25.100;2023-05-20T00:24:38;;;;20.30
70969;BMP280;58630;43.022;25.100;2023-05-20T00:27:03;;;;20.30
70969;BMP280;58630;43.022;25.100;2023-05-20T00:29:29;;;;20.30
70969;BMP280;58630;43.022;25.100;2023-05-20T00:31:55;;;;20.30
70969;BMP280;58630;43.022;25.100;2023-05-20T00:34:20;;;;20.30
70969;BMP280;58630;43.022;25.100;2023-05-20T00:36:46;;;;20.20
70969;BMP280;58630;43.022;25.100;2023-05-20T00:39:11;;;;20.20
70969;BMP280;58630;43.022;25.100;2023-05-20T00:41:37;;;;20.20
70969;BMP280;58630;43.022;25.100;2023-05-20T00:44:03;;;;20.20
70969;BMP280;58630;43.022;25.100;2023-05-20T00:46:28;;;;20.20
70969;BMP280;58630;43.022;25.100;2023-05-20T00:48:54;;;;20.20
70969;BMP280;58630;43.022;25.100;2023-05-20T00:51:20;;;;20.20
70969;BMP280;58630;43.022;25.100;2023-05-20T00:53:45;;;;20.20
70969;BMP280;58630;43.022;25.100;2023-05-20T00:56:11;;;;20.10
70969;BMP280;58630;43.022;25.100;2023-05-20T00:58:37;;;;20.10
70969;BMP280;58630;43.022;25.100;2023-05-20T01:01:03;;;;20.10
70969;BMP280;58630;43.022;25.100;2023-05-20T01:03:29;;;;20.10
70969;BMP280;58630;43.022;25.100;2023-05-20T01:05:54;;;;20.10
70969;BMP280;58630;43.022;25.100;2023-05-20T01:08:20;;;;20.10
70969;BMP280;58630;43.022;25.100;2023-05-20T01:10:48;;;;20.10
70969;BMP280;58630;43.022;25.100;2023-05-20T01:13:16;;;;20.10
70969;BMP280;58630;43.022;25.100;2023-05-20T01:15:44;;;;20.00
70969;BMP280;58630;43.022;25.100;2023-05-20T01:18:10;;;;20.00
70969;BMP280;58630;43.022;25.100;2023-05-20T01:20:37;;;;20.00
70969;BMP280;58630;43.022;25.100;2023-05-20T01:23:03;;;;20.00
70969;BMP280;58630;43.022;25.100;2023-05-20T01:25:29;;;;20.00
70969;BMP280;58630;43.022;25.100;2023-05-20T01:27:55;;;;20.00
70969;BMP280;58630;43.022;25.100;2023-05-20T01:30:22;;;;20.00
70969;BMP280;58630;43.022;25.100;2023-05-20T01:32:53;;;;20.00
70969;BMP280;58630;43.022;25.100;2023-05-20T01:35:19;;;;20.00
70969;BMP280;58630;43.022;25.100;2023-05-20T01:37:46;;;;20.00
70969;BMP280;58630;43.022;25.100;2023-05-20T01:40:15;;;;19.90
70969;BMP280;58630;43.022;25.100;2023-05-20T01:42:42;;;;19.90
70969;BMP280;58630;43.022;25.100;2023-05-20T01:45:08;;;;19.90
70969;BMP280;58630;43.022;25.100;2023-05-20T01:47:33;;;;19.90
70969;BMP280;58630;43.022;25.100;2023-05-20T01:49:59;;;;19.90
70969;BMP280;58630;43.022;25.100;2023-05-20T01:52:25;;;;19.90
70969;BMP280;58630;43.022;25.100;2023-05-20T01:54:50;;;;19.90
70969;BMP280;58630;43.022;25.100;2023-05-20T01:57:19;;;;19.90
70969;BMP280;58630;43.022;25.100;2023-05-20T01:59:44;;;;19.80
70969;BMP280;58630;43.022;25.100;2023-05-20T02:02:10;;;;19.80
70969;BMP280;58630;43.022;25.100;2023-05-20T02:04:35;;;;19.80
70969;BMP280;58630;43.022;25.100;2023-05-20T02:07:01;;;;19.80
70969;BMP280;58630;43.022;25.100;2023-05-20T02:09:27;;;;19.80
70969;BMP280;58630;43.022;25.100;2023-05-20T02:11:52;;;;19.80
70969;BMP280;58630;43.022;25.100;2023-05-20T02:14:18;;;;19.80
70969;BMP280;58630;43.022;25.100;2023-05-20T02:16:44;;;;19.80
70969;BMP280;58630;43.022;25.100;2023-05-20T02:19:10;;;;19.70
70969;BMP280;58630;43.022;25.100;2023-05-20T02:21:38;;;;19.70
70969;BMP280;58630;43.022;25.100;2023-05-20T02:24:04;;;;19.70
70969;BMP280;58630;43.022;25.100;2023-05-20T02:26:30;;;;19.70
70969;BMP280;58630;43.022;25.100;2023-05-20T02:28:55;;;;19.70
70969;BMP280;58630;43.022;25.100;2023-05-20T02:31:21;;;;19.70
70969;BMP280;58630;43.022;25.100;2023-05-20T02:33:47;;;;19.70
70969;BMP280;58630;43.022;25.100;2023-05-20T02:36:12;;;;19.60
70969;BMP280;58630;43.022;25.100;2023-05-20T02:38:38;;;;19.60
70969;BMP280;58630;43.022;25.100;2023-05-20T02:41:04;;;;19.60
70969;BMP280;58630;43.022;25.100;2023-05-20T02:43:29;;;;19.60
70969;BMP280;58630;43.022;25.100;2023-05-20T02:45:56;;;;19.60
70969;BMP280;58630;43.022;25.100;2023-05-20T02:48:21;;;;19.50
70969;BMP280;58630;43.022;25.100;2023-05-20T02:50:47;;;;19.50
70969;BMP280;58630;43.022;25.100;2023-05-20T02:53:12;;;;19.50
70969;BMP280;58630;43.022;25.100;2023-05-20T02:55:39;;;;19.50
70969;BMP280;58630;43.022;25.100;2023-05-20T02:58:04;;;;19.50
70969;BMP280;58630;43.022;25.100;2023-05-20T03:00:30;;;;19.50
70969;BMP280;58630;43.022;25.100;2023-05-20T03:02:56;;;;19.50
70969;BMP280;58630;43.022;25.100;2023-05-20T03:05:21;;;;19.50
70969;BMP280;58630;43.022;25.100;2023-05-20T03:07:47;;;;19.40
70969;BMP280;58630;43.022;25.100;2023-05-20T03:10:13;;;;19.40
70969;BMP280;58630;43.022;25.100;2023-05-20T03:12:38;;;;19.40
70969;BMP280;58630;43.022;25.100;2023-05-20T03:15:04;;;;19.40
70969;BMP280;58630;43.022;25.100;2023-05-20T03:17:30;;;;19.40
70969;BMP280;58630;43.022;25.100;2023-05-20T03:19:56;;;;19.30
70969;BMP280;58630;43.022;25.100;2023-05-20T03:22:21;;;;19.30
70969;BMP280;58630;43.022;25.100;2023-05-20T03:24:47;;;;19.30
70969;BMP280;58630;43.022;25.100;2023-05-20T03:27:13;;;;19.30
70969;BMP280;58630;43.022;25.100;2023-05-20T03:29:38;;;;19.30
70969;BMP280;58630;43.022;25.100;2023-05-20T03:32:04;;;;19.30
70969;BMP280;58630;43.022;25.100;2023-05-20T03:34:29;;;;19.30
70969;BMP280;58630;43.022;25.100;2023-05-20T03:36:55;;;;19.30
70969;BMP280;58630;43.022;25.100;2023-05-20T03:39:21;;;;19.30
70969;BMP280;58630;43.022;25.100;2023-05-20T03:41:47;;;;19.30
70969;BMP280;58630;43.022;25.100;2023-05-20T03:44:12;;;;19.30
70969;BMP280;58630;43.022;25.100;2023-05-20T03:46:38;;;;19.30
70969;BMP280;58630;43.022;25.100;2023-05-20T03:49:03;;;;19.30
70969;BMP280;58630;43.022;25.100;2023-05-20T03:51:30;;;;19.30
70969;BMP280;58630;43.022;25.100;2023-05-20T03:53:55;;;;19.20
70969;BMP280;58630;43.022;25.100;2023-05-20T03:56:21;;;;19.30
70969;BMP280;58630;43.022;25.100;2023-05-20T03:58:47;;;;19.20
70969;BMP280;58630;43.022;25.100;2023-05-20T04:01:12;;;;19.20
70969;BMP280;58630;43.022;25.100;2023-05-20T04:03:39;;;;19.20
70969;BMP280;58630;43.022;25.100;2023-05-20T04:06:06;;;;19.20
70969;BMP280;58630;43.022;25.100;2023-05-20T04:08:31;;;;19.20
70969;BMP280;58630;43.022;25.100;2023-05-20T04:10:58;;;;19.20
70969;BMP280;58630;43.022;25.100;2023-05-20T04:13:24;;;;19.20
70969;BMP280;58630;43.022;25.100;2023-05-20T04:15:50;;;;19.20
70969;BMP280;58630;43.022;25.100;2023-05-20T04:18:17;;;;19.20
70969;BMP280;58630;43.022;25.100;2023-05-20T04:20:43;;;;19.20
70969;BMP280;58630;43.022;25.100;2023-05-20T04:23:09;;;;19.20
70969;BMP280;58630;43.022;25.100;2023-05-20T04:25:34;;;;19.20
70969;BMP280;58630;43.022;25.100;2023-05-20T04:28:00;;;;19.20
70969;BMP280;58630;43.022;25.100;2023-05-20T04:30:25;;;;19.20
70969;BMP280;58630;43.022;25.100;2023-05-20T04:32:51;;;;19.20
70969;BMP280;58630;43.022;25.100;2023-05-20T04:35:18;;;;19.20
70969;BMP280;58630;43.022;25.100;2023-05-20T04:37:43;;;;19.20
70969;BMP280;58630;43.022;25.100;2023-05-20T04:40:12;;;;19.20
70969;BMP280;58630;43.022;25.100;2023-05-20T04:42:38;;;;19.20
70969;BMP280;58630;43.022;25.100;2023-05-20T04:45:04;;;;19.20
70969;BMP280;58630;43.022;25.100;2023-05-20T04:47:33;;;;19.20
70969;BMP280;58630;43.022;25.100;2023-05-20T04:50:04;;;;19.20
70969;BMP280;58630;43.022;25.100;2023-05-20T04:52:29;;;;19.20
70969;BMP280;58630;43.022;25.100;2023-05-20T04:54:55;;;;19.20
70969;BMP280;58630;43.022;25.100;2023-05-20T04:57:22;;;;19.20
70969;BMP280;58630;43.022;25.100;2023-05-20T04:59:48;;;;19.20
70969;BMP280;58630;43.022;25.100;2023-05-20T05:02:14;;;;19.20
70969;BMP280;58630;43.022;25.100;2023-05-20T05:04:39;;;;19.20
70969;BMP280;58630;43.022;25.100;2023-05-20T05:07:05;;;;19.20
70969;BMP280;58630;43.022;25.100;2023-05-20T05:09:30;;;;19.20
70969;BMP280;58630;43.022;25.100;2023-05-20T05:11:56;;;;19.20
70969;BMP280;58630;43.022;25.100;2023-05-20T05:14:21;;;;19.20
70969;BMP280;58630;43.022;25.100;2023-05-20T05:16:48;;;;19.20
70969;BMP280;58630;43.022;25.100;2023-05-20T05:19:13;;;;19.20
70969;BMP280;58630;43.022;25.100;2023-05-20T05:21:39;;;;19.20
70969;BMP280;58630;43.022;25.100;2023-05-20T05:24:04;;;;19.20
70969;BMP280;58630;43.022;25.100;2023-05-20T05:26:30;;;;19.20
70969;BMP280;58630;43.022;25.100;2023-05-20T05:28:55;;;;19.20
70969;BMP280;58630;43.022;25.100;2023-05-20T05:31:21;;;;19.20
70969;BMP280;58630;43.022;25.100;2023-05-20T05:33:47;;;;19.20
70969;BMP280;58630;43.022;25.100;2023-05-20T05:36:12;;;;19.20
70969;BMP280;58630;43.022;25.100;2023-05-20T05:38:38;;;;19.10
70969;BMP280;58630;43.022;25.100;2023-05-20T05:41:03;;;;19.10
70969;BMP280;58630;43.022;25.100;2023-05-20T05:43:29;;;;19.20
70969;BMP280;58630;43.022;25.100;2023-05-20T05:45:54;;;;19.10
70969;BMP280;58630;43.022;25.100;2023-05-20T05:48:20;;;;19.20
70969;BMP280;58630;43.022;25.100;2023-05-20T05:50:46;;;;19.20
70969;BMP280;58630;43.022;25.100;2023-05-20T05:53:11;;;;19.20
70969;BMP280;58630;43.022;25.100;2023-05-20T05:55:37;;;;19.20
70969;BMP280;58630;43.022;25.100;2023-05-20T05:58:02;;;;19.20
70969;BMP280;58630;43.022;25.100;2023-05-20T06:00:28;;;;19.20
70969;BMP280;58630;43.022;25.100;2023-05-20T06:02:53;;;;19.20
70969;BMP280;58630;43.022;25.100;2023-05-20T06:05:19;;;;19.20
70969;BMP280;58630;43.022;25.100;2023-05-20T06:07:44;;;;19.20
70969;BMP280;58630;43.022;25.100;2023-05-20T06:10:10;;;;19.20
70969;BMP280;58630;43.022;25.100;2023-05-20T06:12:35;;;;19.20
70969;BMP280;58630;43.022;25.100;2023-05-20T06:15:01;;;;19.20
70969;BMP280;58630;43.022;25.100;2023-05-20T06:17:26;;;;19.20
70969;BMP280;58630;43.022;25.100;2023-05-20T06:19:52;;;;19.20
70969;BMP280;58630;43.022;25.100;2023-05-20T06:22:18;;;;19.20
70969;BMP280;58630;43.022;25.100;2023-05-20T06:24:43;;;;19.20
70969;BMP280;58630;43.022;25.100;2023-05-20T06:27:09;;;;19.20
70969;BMP280;58630;43.022;25.100;2023-05-20T06:29:34;;;;19.20
70969;BMP280;58630;43.022;25.100;2023-05-20T06:32:00;;;;19.20
70969;BMP280;58630;43.022;25.100;2023-05-20T06:34:25;;;;19.20
70969;BMP280;58630;43.022;25.100;2023-05-20T06:36:51;;;;19.20
70969;BMP280;58630;43.022;25.100;2023-05-20T06:39:17;;;;19.20
70969;BMP280;58630;43.022;25.100;2023-05-20T06:41:42;;;;19.20
70969;BMP280;58630;43.022;25.100;2023-05-20T06:44:08;;;;19.20
70969;BMP280;58630;43.022;25.100;2023-05-20T06:46:33;;;;19.30
70969;BMP280;58630;43.022;25.100;2023-05-20T06:48:59;;;;19.30
70969;BMP280;58630;43.022;25.100;2023-05-20T06:51:25;;;;19.20
70969;BMP280;58630;43.022;25.100;2023-05-20T06:53:51;;;;19.20
70969;BMP280;58630;43.022;25.100;2023-05-20T06:56:17;;;;19.30
70969;BMP280;58630;43.022;25.100;2023-05-20T06:58:42;;;;19.30
70969;BMP280;58630;43.022;25.100;2023-05-20T07:01:08;;;;19.30
70969;BMP280;58630;43.022;25.100;2023-05-20T07:03:33;;;;19.30
70969;BMP280;58630;43.022;25.100;2023-05-20T07:05:59;;;;19.30
70969;BMP280;58630;43.022;25.100;2023-05-20T07:08:24;;;;19.30
70969;BMP280;58630;43.022;25.100;2023-05-20T07:10:50;;;;19.30
70969;BMP280;58630;43.022;25.100;2023-05-20T07:13:16;;;;19.30
70969;BMP280;58630;43.022;25.100;2023-05-20T07:15:44;;;;19.30
70969;BMP280;58630;43.022;25.100;2023-05-20T07:18:10;;;;19.30
70969;BMP280;58630;43.022;25.100;2023-05-20T07:20:36;;;;19.30
70969;BMP280;58630;43.022;25.100;2023-05-20T07:23:01;;;;19.30
70969;BMP280;58630;43.022;25.100;2023-05-20T07:25:28;;;;19.30
70969;BMP280;58630;43.022;25.100;2023-05-20T07:27:53;;;;19.30
70969;BMP280;58630;43.022;25.100;2023-05-20T07:30:19;;;;19.30
70969;BMP280;58630;43.022;25.100;2023-05-20T07:32:44;;;;19.30
70969;BMP280;58630;43.022;25.100;2023-05-20T07:35:10;;;;19.30
70969;BMP280;58630;43.022;25.100;2023-05-20T07:37:35;;;;19.30
70969;BMP280;58630;43.022;25.100;2023-05-20T07:40:01;;;;19.40
70969;BMP280;58630;43.022;25.100;2023-05-20T07:42:26;;;;19.40
70969;BMP280;58630;43.022;25.100;2023-05-20T07:44:52;;;;19.40
70969;BMP280;58630;43.022;25.100;2023-05-20T07:47:17;;;;19.40
70969;BMP280;58630;43.022;25.100;2023-05-20T07:49:43;;;;19.40
70969;BMP280;58630;43.022;25.100;2023-05-20T07:52:11;;;;19.40
70969;BMP280;58630;43.022;25.100;2023-05-20T07:54:36;;;;19.50
70969;BMP280;58630;43.022;25.100;2023-05-20T07:57:02;;;;19.50
70969;BMP280;58630;43.022;25.100;2023-05-20T07:59:27;;;;19.50
70969;BMP280;58630;43.022;25.100;2023-05-20T08:01:53;;;;19.50
70969;BMP280;58630;43.022;25.100;2023-05-20T08:04:18;;;;19.50
70969;BMP280;58630;43.022;25.100;2023-05-20T08:06:44;;;;19.50
70969;BMP280;58630;43.022;25.100;2023-05-20T08:09:10;;;;19.50
70969;BMP280;58630;43.022;25.100;2023-05-20T08:11:35;;;;19.50
70969;BMP280;58630;43.022;25.100;2023-05-20T08:14:01;;;;19.50
70969;BMP280;58630;43.022;25.100;2023-05-20T08:16:27;;;;19.60
70969;BMP280;58630;43.022;25.100;2023-05-20T08:18:52;;;;19.60
70969;BMP280;58630;43.022;25.100;2023-05-20T08:21:18;;;;19.60
70969;BMP280;58630;43.022;25.100;2023-05-20T08:23:43;;;;19.60
70969;BMP280;58630;43.022;25.100;2023-05-20T08:26:09;;;;19.70
70969;BMP280;58630;43.022;25.100;2023-05-20T08:28:35;;;;19.70
70969;BMP280;58630;43.022;25.100;2023-05-20T08:31:02;;;;19.70
70969;BMP280;58630;43.022;25.100;2023-05-20T08:33:27;;;;19.70
70969;BMP280;58630;43.022;25.100;2023-05-20T08:35:53;;;;19.80
70969;BMP280;58630;43.022;25.100;2023-05-20T08:38:18;;;;19.80
70969;BMP280;58630;43.022;25.100;2023-05-20T08:40:44;;;;19.90
70969;BMP280;58630;43.022;25.100;2023-05-20T08:43:10;;;;19.80
70969;BMP280;58630;43.022;25.100;2023-05-20T08:45:36;;;;19.90
70969;BMP280;58630;43.022;25.100;2023-05-20T08:48:02;;;;19.90
70969;BMP280;58630;43.022;25.100;2023-05-20T08:50:29;;;;19.90
70969;BMP280;58630;43.022;25.100;2023-05-20T08:52:55;;;;19.90
70969;BMP280;58630;43.022;25.100;2023-05-20T08:55:25;;;;19.90
70969;BMP280;58630;43.022;25.100;2023-05-20T08:57:53;;;;19.90
70969;BMP280;58630;43.022;25.100;2023-05-20T09:00:20;;;;20.00
70969;BMP280;58630;43.022;25.100;2023-05-20T09:02:47;;;;20.00
70969;BMP280;58630;43.022;25.100;2023-05-20T09:05:13;;;;20.00
70969;BMP280;58630;43.022;25.100;2023-05-20T09:07:39;;;;20.00
70969;BMP280;58630;43.022;25.100;2023-05-20T09:10:07;;;;20.00
70969;BMP280;58630;43.022;25.100;2023-05-20T09:12:32;;;;20.00
70969;BMP280;58630;43.022;25.100;2023-05-20T09:14:58;;;;20.00
70969;BMP280;58630;43.022;25.100;2023-05-20T09:17:23;;;;20.00
70969;BMP280;58630;43.022;25.100;2023-05-20T09:19:49;;;;20.00
70969;BMP280;58630;43.022;25.100;2023-05-20T09:22:22;;;;20.00
70969;BMP280;58630;43.022;25.100;2023-05-20T09:24:49;;;;20.00
70969;BMP280;58630;43.022;25.100;2023-05-20T09:27:15;;;;20.00
70969;BMP280;58630;43.022;25.100;2023-05-20T09:29:41;;;;20.00
70969;BMP280;58630;43.022;25.100;2023-05-20T09:32:09;;;;20.10
70969;BMP280;58630;43.022;25.100;2023-05-20T09:34:36;;;;20.10
70969;BMP280;58630;43.022;25.100;2023-05-20T09:37:01;;;;20.10
70969;BMP280;58630;43.022;25.100;2023-05-20T09:39:28;;;;20.10
70969;BMP280;58630;43.022;25.100;2023-05-20T09:41:56;;;;20.10
70969;BMP280;58630;43.022;25.100;2023-05-20T09:44:27;;;;20.10
70969;BMP280;58630;43.022;25.100;2023-05-20T09:46:53;;;;20.20
70969;BMP280;58630;43.022;25.100;2023-05-20T09:49:19;;;;20.20
70969;BMP280;58630;43.022;25.100;2023-05-20T09:51:45;;;;20.20
70969;BMP280;58630;43.022;25.100;2023-05-20T09:54:12;;;;20.20
70969;BMP280;58630;43.022;25.100;2023-05-20T09:56:39;;;;20.20
70969;BMP280;58630;43.022;25.100;2023-05-20T09:59:05;;;;20.20
70969;BMP280;58630;43.022;25.100;2023-05-20T10:01:30;;;;20.30
70969;BMP280;58630;43.022;25.100;2023-05-20T10:03:56;;;;20.30
70969;BMP280;58630;43.022;25.100;2023-05-20T10:06:28;;;;20.30
70969;BMP280;58630;43.022;25.100;2023-05-20T10:09:35;;;;20.30
70969;BMP280;58630;43.022;25.100;2023-05-20T10:11:55;;;;20.30
70969;BMP280;58630;43.022;25.100;2023-05-20T10:14:31;;;;20.30
70969;BMP280;58630;43.022;25.100;2023-05-20T10:19:39;;;;20.30
70969;BMP280;58630;43.022;25.100;2023-05-20T10:22:05;;;;20.30
70969;BMP280;58630;43.022;25.100;2023-05-20T10:24:32;;;;20.30
70969;BMP280;58630;43.022;25.100;2023-05-20T10:26:58;;;;20.40
70969;BMP280;58630;43.022;25.100;2023-05-20T10:29:24;;;;20.40
70969;BMP280;58630;43.022;25.100;2023-05-20T10:31:51;;;;20.40
70969;BMP280;58630;43.022;25.100;2023-05-20T10:34:17;;;;20.40
70969;BMP280;58630;43.022;25.100;2023-05-20T10:37:04;;;;20.40
70969;BMP280;58630;43.022;25.100;2023-05-20T10:39:37;;;;20.40
70969;BMP280;58630;43.022;25.100;2023-05-20T10:42:07;;;;20.40
70969;BMP280;58630;43.022;25.100;2023-05-20T10:44:42;;;;20.40
70969;BMP280;58630;43.022;25.100;2023-05-20T10:47:08;;;;20.40
70969;BMP280;58630;43.022;25.100;2023-05-20T10:49:34;;;;20.40
70969;BMP280;58630;43.022;25.100;2023-05-20T10:52:01;;;;20.40
70969;BMP280;58630;43.022;25.100;2023-05-20T10:54:26;;;;20.50
70969;BMP280;58630;43.022;25.100;2023-05-20T10:56:53;;;;20.50
70969;BMP280;58630;43.022;25.100;2023-05-20T10:59:19;;;;20.40
70969;BMP280;58630;43.022;25.100;2023-05-20T11:01:45;;;;20.50
70969;BMP280;58630;43.022;25.100;2023-05-20T11:04:12;;;;20.50
70969;BMP280;58630;43.022;25.100;2023-05-20T11:06:38;;;;20.50
70969;BMP280;58630;43.022;25.100;2023-05-20T11:09:05;;;;20.50
70969;BMP280;58630;43.022;25.100;2023-05-20T11:11:31;;;;20.50
70969;BMP280;58630;43.022;25.100;2023-05-20T11:13:57;;;;20.60
70969;BMP280;58630;43.022;25.100;2023-05-20T11:16:22;;;;20.60
70969;BMP280;58630;43.022;25.100;2023-05-20T11:18:48;;;;20.60
70969;BMP280;58630;43.022;25.100;2023-05-20T11:21:14;;;;20.60
70969;BMP280;58630;43.022;25.100;2023-05-20T11:23:40;;;;20.60
70969;BMP280;58630;43.022;25.100;2023-05-20T11:26:06;;;;20.70
70969;BMP280;58630;43.022;25.100;2023-05-20T11:28:32;;;;20.70
70969;BMP280;58630;43.022;25.100;2023-05-20T11:30:59;;;;20.80
70969;BMP280;58630;43.022;25.100;2023-05-20T11:33:25;;;;20.80
70969;BMP280;58630;43.022;25.100;2023-05-20T11:35:52;;;;20.90
70969;BMP280;58630;43.022;25.100;2023-05-20T11:38:18;;;;20.90
70969;BMP280;58630;43.022;25.100;2023-05-20T11:40:44;;;;21.00
70969;BMP280;58630;43.022;25.100;2023-05-20T11:43:10;;;;21.10
70969;BMP280;58630;43.022;25.100;2023-05-20T11:45:39;;;;21.20
70969;BMP280;58630;43.022;25.100;2023-05-20T11:48:05;;;;21.30
70969;BMP280;58630;43.022;25.100;2023-05-20T11:50:34;;;;21.40
70969;BMP280;58630;43.022;25.100;2023-05-20T11:53:04;;;;21.50
70969;BMP280;58630;43.022;25.100;2023-05-20T11:55:30;;;;21.60
70969;BMP280;58630;43.022;25.100;2023-05-20T11:57:57;;;;21.70
70969;BMP280;58630;43.022;25.100;2023-05-20T12:00:22;;;;21.80
70969;BMP280;58630;43.022;25.100;2023-05-20T12:02:48;;;;21.90
70969;BMP280;58630;43.022;25.100;2023-05-20T12:05:14;;;;22.00
70969;BMP280;58630;43.022;25.100;2023-05-20T12:07:40;;;;22.20
70969;BMP280;58630;43.022;25.100;2023-05-20T12:10:06;;;;22.30
70969;BMP280;58630;43.022;25.100;2023-05-20T12:12:31;;;;22.40
70969;BMP280;58630;43.022;25.100;2023-05-20T12:14:57;;;;22.60
70969;BMP280;58630;43.022;25.100;2023-05-20T12:17:23;;;;22.70
70969;BMP280;58630;43.022;25.100;2023-05-20T12:19:48;;;;22.90
70969;BMP280;58630;43.022;25.100;2023-05-20T12:22:14;;;;23.00
70969;BMP280;58630;43.022;25.100;2023-05-20T12:24:39;;;;23.20
70969;BMP280;58630;43.022;25.100;2023-05-20T12:27:05;;;;23.40
70969;BMP280;58630;43.022;25.100;2023-05-20T12:29:32;;;;23.50
70969;BMP280;58630;43.022;25.100;2023-05-20T12:31:58;;;;23.70
70969;BMP280;58630;43.022;25.100;2023-05-20T12:34:23;;;;23.80
70969;BMP280;58630;43.022;25.100;2023-05-20T12:36:49;;;;24.00
70969;BMP280;58630;43.022;25.100;2023-05-20T12:39:15;;;;24.10
70969;BMP280;58630;43.022;25.100;2023-05-20T12:41:42;;;;24.30
70969;BMP280;58630;43.022;25.100;2023-05-20T12:44:08;;;;24.40
70969;BMP280;58630;43.022;25.100;2023-05-20T12:46:36;;;;24.50
70969;BMP280;58630;43.022;25.100;2023-05-20T12:49:02;;;;24.70
70969;BMP280;58630;43.022;25.100;2023-05-20T12:51:28;;;;24.80
70969;BMP280;58630;43.022;25.100;2023-05-20T12:53:54;;;;24.90
70969;BMP280;58630;43.022;25.100;2023-05-20T12:56:19;;;;25.10
70969;BMP280;58630;43.022;25.100;2023-05-20T12:58:46;;;;25.10
70969;BMP280;58630;43.022;25.100;2023-05-20T13:01:12;;;;25.10
70969;BMP280;58630;43.022;25.100;2023-05-20T13:03:37;;;;25.00
70969;BMP280;58630;43.022;25.100;2023-05-20T13:06:03;;;;24.90
70969;BMP280;58630;43.022;25.100;2023-05-20T13:08:28;;;;24.90
70969;BMP280;58630;43.022;25.100;2023-05-20T13:10:54;;;;24.90
70969;BMP280;58630;43.022;25.100;2023-05-20T13:13:20;;;;24.60
70969;BMP280;58630;43.022;25.100;2023-05-20T13:15:46;;;;24.40
70969;BMP280;58630;43.022;25.100;2023-05-20T13:18:13;;;;24.20
70969;BMP280;58630;43.022;25.100;2023-05-20T13:20:41;;;;24.10
70969;BMP280;58630;43.022;25.100;2023-05-20T13:23:06;;;;24.00
70969;BMP280;58630;43.022;25.100;2023-05-20T13:25:32;;;;24.10
70969;BMP280;58630;43.022;25.100;2023-05-20T13:27:57;;;;24.00
70969;BMP280;58630;43.022;25.100;2023-05-20T13:30:23;;;;24.00
70969;BMP280;58630;43.022;25.100;2023-05-20T13:32:49;;;;23.90
70969;BMP280;58630;43.022;25.100;2023-05-20T13:35:14;;;;24.00
70969;BMP280;58630;43.022;25.100;2023-05-20T13:37:41;;;;24.10
70969;BMP280;58630;43.022;25.100;2023-05-20T13:40:06;;;;24.10
70969;BMP280;58630;43.022;25.100;2023-05-20T13:42:32;;;;24.20
70969;BMP280;58630;43.022;25.100;2023-05-20T13:44:58;;;;24.20
70969;BMP280;58630;43.022;25.100;2023-05-20T13:47:23;;;;24.30
70969;BMP280;58630;43.022;25.100;2023-05-20T13:49:49;;;;24.30
70969;BMP280;58630;43.022;25.100;2023-05-20T13:52:14;;;;24.40
70969;BMP280;58630;43.022;25.100;2023-05-20T13:54:40;;;;24.50
70969;BMP280;58630;43.022;25.100;2023-05-20T13:57:07;;;;24.70
70969;BMP280;58630;43.022;25.100;2023-05-20T13:59:33;;;;24.70
70969;BMP280;58630;43.022;25.100;2023-05-20T14:01:59;;;;24.50
70969;BMP280;58630;43.022;25.100;2023-05-20T14:04:25;;;;24.50
70969;BMP280;58630;43.022;25.100;2023-05-20T14:06:50;;;;24.50
70969;BMP280;58630;43.022;25.100;2023-05-20T14:09:16;;;;24.60
70969;BMP280;58630;43.022;25.100;2023-05-20T14:11:41;;;;24.80
70969;BMP280;58630;43.022;25.100;2023-05-20T14:14:07;;;;24.70
70969;BMP280;58630;43.022;25.100;2023-05-20T14:16:33;;;;24.70
70969;BMP280;58630;43.022;25.100;2023-05-20T14:18:58;;;;24.80
70969;BMP280;58630;43.022;25.100;2023-05-20T14:21:24;;;;25.00
70969;BMP280;58630;43.022;25.100;2023-05-20T14:23:49;;;;25.10
70969;BMP280;58630;43.022;25.100;2023-05-20T14:26:15;;;;25.20
70969;BMP280;58630;43.022;25.100;2023-05-20T14:28:40;;;;25.30
70969;BMP280;58630;43.022;25.100;2023-05-20T14:31:06;;;;25.30
70969;BMP280;58630;43.022;25.100;2023-05-20T14:33:32;;;;25.00
70969;BMP280;58630;43.022;25.100;2023-05-20T14:35:57;;;;24.90
70969;BMP280;58630;43.022;25.100;2023-05-20T14:38:23;;;;25.20
70969;BMP280;58630;43.022;25.100;2023-05-20T14:40:49;;;;25.20
70969;BMP280;58630;43.022;25.100;2023-05-20T14:43:15;;;;25.20
70969;BMP280;58630;43.022;25.100;2023-05-20T14:45:40;;;;25.30
70969;BMP280;58630;43.022;25.100;2023-05-20T14:48:06;;;;25.20
70969;BMP280;58630;43.022;25.100;2023-05-20T14:50:31;;;;25.30
70969;BMP280;58630;43.022;25.100;2023-05-20T14:52:57;;;;25.20
70969;BMP280;58630;43.022;25.100;2023-05-20T14:55:22;;;;25.30
70969;BMP280;58630;43.022;25.100;2023-05-20T14:57:48;;;;25.50
70969;BMP280;58630;43.022;25.100;2023-05-20T15:00:13;;;;25.60
70969;BMP280;58630;43.022;25.100;2023-05-20T15:02:39;;;;25.70
70969;BMP280;58630;43.022;25.100;2023-05-20T15:05:05;;;;25.70
70969;BMP280;58630;43.022;25.100;2023-05-20T15:07:31;;;;25.70
70969;BMP280;58630;43.022;25.100;2023-05-20T15:09:56;;;;25.60
70969;BMP280;58630;43.022;25.100;2023-05-20T15:12:22;;;;25.60
70969;BMP280;58630;43.022;25.100;2023-05-20T15:14:47;;;;25.70
70969;BMP280;58630;43.022;25.100;2023-05-20T15:17:13;;;;25.70
70969;BMP280;58630;43.022;25.100;2023-05-20T15:19:38;;;;25.70
70969;BMP280;58630;43.022;25.100;2023-05-20T15:22:05;;;;25.70
70969;BMP280;58630;43.022;25.100;2023-05-20T15:24:31;;;;25.70
70969;BMP280;58630;43.022;25.100;2023-05-20T15:26:56;;;;25.70
70969;BMP280;58630;43.022;25.100;2023-05-20T15:29:22;;;;25.70
70969;BMP280;58630;43.022;25.100;2023-05-20T15:31:47;;;;25.70
70969;BMP280;58630;43.022;25.100;2023-05-20T15:34:13;;;;25.70
70969;BMP280;58630;43.022;25.100;2023-05-20T15:36:39;;;;25.70
70969;BMP280;58630;43.022;25.100;2023-05-20T15:39:04;;;;25.60